Time;durP1;ratioP1;P1;durP2;ratioP2;P2;SDS_P1;SDS_P2;PMS_P1;PMS_P2;Temp;Humidity;BMP_temperature;BMP_pressure;BME280_temperature;BME280_humidity;BME280_pressure;Samples;Min_cycle;Max_cycle;Signal;HPM_P1;HPM_P2
2024/02/28 00:11:15;;;;;;;15.60;13.33;;;;;;;9.12;76.67;95285.06;4913866;29;20758;-84
2024/02/28 00:17:24;;;;;;;16.50;13.83;;;;;;;9.11;76.67;95293.75;4922495;29;20298;-84
2024/02/28 00:21:00;;;;;;;16.23;14.23;;;;;;;9.09;77.07;95299.06;4923836;29;20206;-84
2024/02/28 00:39:51;;;;;;;18.03;14.57;;;;;;;9.04;78.62;95329.59;4988702;28;20202;-85
2024/02/28 00:42:56;;;;;;;17.07;15.30;;;;;;;9.06;78.69;95334.53;5028403;28;20216;-85
2024/02/28 00:55:34;;;;;;;17.83;14.67;;;;;;;9.06;78.97;95362.78;4955628;29;20487;-85
2024/02/28 01:01:21;;;;;;;17.17;14.37;;;;;;;9.09;78.95;95375.28;4953816;29;20575;-85
2024/02/28 01:11:28;;;;;;;18.67;15.00;;;;;;;9.10;79.08;95389.72;4856609;29;20219;-85
2024/02/28 01:14:39;;;;;;;18.77;15.27;;;;;;;9.09;79.26;95396.63;4926961;28;20219;-85
2024/02/28 01:24:33;;;;;;;;;;;;;;;;;;;;;
2024/02/28 02:00:44;;;;;;;17.17;14.70;;;;;;;8.99;80.40;95442.31;4969004;28;20216;-85
2024/02/28 02:07:03;;;;;;;18.00;15.17;;;;;;;9.03;80.75;95443.56;4901313;29;20735;-85
2024/02/28 02:10:12;;;;;;;17.40;14.93;;;;;;;9.02;81.25;95447.09;4839490;29;20576;-85
2024/02/28 02:16:25;;;;;;;18.07;15.67;;;;;;;9.03;81.08;95451.28;4904839;28;20275;-85
2024/02/28 02:25:51;;;;;;;18.77;15.37;;;;;;;8.91;82.09;95460.31;5004024;28;20227;-85
2024/02/28 02:35:19;;;;;;;18.57;15.40;;;;;;;8.83;83.42;95475.78;4983724;28;20216;-85
2024/02/28 03:05:27;;;;;;;19.53;17.20;;;;;;;8.68;84.56;95523.63;4936759;28;20317;-87
2024/02/28 03:08:32;;;;;;;20.40;16.67;;;;;;;8.64;84.67;95518.84;4994097;28;20222;-85
2024/02/28 03:11:35;;;;;;;21.07;17.73;;;;;;;8.58;84.45;95523.84;4944799;28;20257;-85
2024/02/28 03:14:22;;;;;;;21.77;18.30;;;;;;;8.59;84.62;95517.72;4951566;28;20206;-86
2024/02/28 03:17:17;;;;;;;19.23;16.77;;;;;;;8.59;84.41;95522.88;4998172;28;20234;-85
2024/02/28 03:20:30;;;;;;;19.97;17.57;;;;;;;8.56;84.80;95523.19;4990459;28;20317;-85
2024/02/28 03:23:32;;;;;;;23.47;18.03;;;;;;;8.44;84.43;95527.09;4915464;29;20217;-85
2024/02/28 03:26:00;;;;;;;22.10;18.37;;;;;;;8.32;84.96;95529.97;4894069;29;20257;-85
2024/02/28 03:32:27;;;;;;;23.77;19.00;;;;;;;8.31;84.75;95540.38;4990656;28;20250;-85
2024/02/28 03:41:29;;;;;;;21.00;17.70;;;;;;;8.38;84.36;95535.44;4939953;28;20213;-85
2024/02/28 03:44:08;;;;;;;20.10;17.10;;;;;;;8.38;84.13;95532.88;5015052;28;20278;-85
2024/02/28 03:47:28;;;;;;;21.77;17.53;;;;;;;8.28;84.35;95540.69;5009848;28;20230;-85
2024/02/28 03:53:45;;;;;;;;;;;;;;;;;;;;;
2024/02/28 03:56:47;;;;;;;22.57;18.80;;;;;;;8.10;84.71;95540.88;5002509;28;20783;-85
2024/02/28 04:00:07;;;;;;;22.23;17.83;;;;;;;8.18;84.78;95563.97;4996858;28;20298;-84
2024/02/28 04:09:46;;;;;;;22.60;18.03;;;;;;;8.34;83.13;95549.53;4908297;29;20771;-85
2024/02/28 04:16:00;;;;;;;22.20;18.17;;;;;;;8.33;83.96;95559.00;4980621;28;20223;-84
2024/02/28 04:18:56;;;;;;;22.13;18.43;;;;;;;8.29;83.83;95567.94;5002563;28;20205;-84
2024/02/28 04:22:09;;;;;;;23.23;18.43;;;;;;;8.34;83.49;95567.50;4999978;28;20238;-85
2024/02/28 04:28:22;;;;;;;21.80;18.07;;;;;;;8.38;83.00;95558.50;5032902;23;20235;-85
2024/02/28 04:35:02;;;;;;;23.97;18.90;;;;;;;8.37;82.35;95559.47;4956009;28;20725;-84
2024/02/28 04:58:37;;;;;;;26.43;20.33;;;;;;;8.30;82.71;95583.19;4970344;28;20215;-85
2024/02/28 05:15:28;;;;;;;22.33;19.00;;;;;;;8.50;81.21;95570.81;4866905;29;20211;-87
2024/02/28 05:28:24;;;;;;;22.90;18.40;;;;;;;8.46;81.68;95577.28;4908930;28;20224;-87
2024/02/28 05:34:52;;;;;;;26.03;19.97;;;;;;;8.50;81.13;95578.53;4978352;28;20208;-86
2024/02/28 05:41:34;;;;;;;25.23;19.23;;;;;;;8.42;81.20;95590.59;4982476;28;20298;-87
2024/02/28 05:44:08;;;;;;;23.80;20.00;;;;;;;8.45;81.21;95608.22;4987369;28;20209;-87
2024/02/28 05:49:56;;;;;;;;;;;;;;;;;;;;;
2024/02/28 05:52:52;;;;;;;21.97;18.57;;;;;;;8.50;81.17;95624.72;4969521;28;20200;-86
2024/02/28 05:59:08;;;;;;;24.93;19.03;;;;;;;8.42;81.34;95642.69;4972397;28;20715;-87
2024/02/28 06:02:20;;;;;;;23.83;19.33;;;;;;;8.42;81.54;95647.81;4974734;28;20200;-87
2024/02/28 06:11:36;;;;;;;22.87;19.33;;;;;;;8.39;82.61;95671.22;4949629;28;20302;-87
2024/02/28 06:20:22;;;;;;;25.90;21.27;;;;;;;8.43;82.16;95676.84;4933941;28;20699;-87
2024/02/28 06:29:50;;;;;;;23.80;19.97;;;;;;;8.48;82.10;95693.34;5021450;28;20304;-86
2024/02/28 06:33:06;;;;;;;26.07;19.67;;;;;;;8.31;82.58;95712.22;4986066;28;20311;-85
2024/02/28 07:15:22;;;;;;;28.80;20.50;;;;;;;8.41;82.80;95755.75;4902507;29;20238;-88
2024/02/28 07:38:20;;;;;;;31.83;22.03;;;;;;;8.38;82.88;95762.00;4827774;29;20232;-89
2024/02/28 08:24:05;;;;;;;37.00;26.40;;;;;;;8.31;83.44;95795.13;4695316;30;20228;-87
2024/02/28 09:09:37;;;;;;;35.63;25.67;;;;;;;8.73;81.56;95793.44;5044014;28;20220;-87
2024/02/28 09:12:35;;;;;;;37.80;26.97;;;;;;;8.75;80.89;95783.84;5041042;28;20198;-87
2024/02/28 09:18:21;;;;;;;35.83;25.60;;;;;;;8.73;80.14;95772.91;5113182;22;20865;-87
2024/02/28 09:20:56;;;;;;;35.47;24.90;;;;;;;8.76;80.37;95778.53;5036494;28;20231;-85
2024/02/28 09:37:16;;;;;;;35.10;26.53;;;;;;;8.77;80.90;95813.50;4934886;28;20264;-87
2024/02/28 09:40:35;;;;;;;34.43;25.47;;;;;;;8.82;80.87;95803.59;4949164;28;20631;-86
2024/02/28 09:53:30;;;;;;;36.70;26.57;;;;;;;8.89;79.28;95773.72;4802002;29;20218;-86
2024/02/28 10:11:35;;;;;;;25.97;20.03;;;;;;;9.90;91.79;96002.88;5013279;28;20424;-86
2024/02/28 10:27:32;;;;;;;35.47;27.30;;;;;;;9.55;75.62;95618.44;4975560;28;20318;-84
2024/02/28 10:30:06;;;;;;;34.63;24.80;;;;;;;9.46;75.83;95619.44;5001831;28;20274;-85
2024/02/28 10:32:56;;;;;;;31.63;22.57;;;;;;;9.45;75.83;95632.44;5010053;28;20203;-85
2024/02/28 10:36:06;;;;;;;31.47;24.10;;;;;;;9.44;75.08;95613.66;5008805;28;20201;-87
2024/02/28 10:39:10;;;;;;;31.10;24.33;;;;;;;9.35;75.46;95623.19;4928571;29;20756;-86
2024/02/28 11:06:05;;;;;;;35.27;24.93;;;;;;;9.42;73.83;95584.78;4831417;29;20238;-87
2024/02/28 11:21:56;;;;;;;35.03;25.13;;;;;;;9.48;74.94;95637.25;4850793;29;20211;-84
2024/02/28 11:24:25;;;;;;;34.63;26.00;;;;;;;9.44;75.39;95659.91;4955562;28;20202;-85
2024/02/28 11:27:01;;;;;;;34.87;25.73;;;;;;;9.47;75.38;95669.88;5009912;28;20257;-86
2024/02/28 11:36:07;;;;;;;33.27;25.03;;;;;;;9.45;74.62;95643.53;5000270;28;20581;-86
2024/02/28 11:39:30;;;;;;;;;;;;;;;;;;;;;
2024/02/28 11:49:54;;;;;;;36.47;24.60;;;;;;;9.50;75.38;95676.44;4882291;29;20210;-88
2024/02/28 12:10:12;;;;;;;;;;;;;;;;;;;;;
2024/02/28 12:13:07;;;;;;;37.00;25.63;;;;;;;9.37;77.44;95746.38;4839829;29;20220;-85
2024/02/28 12:26:59;;;;;;;33.23;24.77;;;;;;;9.45;76.30;95710.34;4917763;28;20224;-86
2024/02/28 12:32:47;;;;;;;31.70;24.07;;;;;;;9.22;76.71;95710.28;4918481;29;20303;-87
2024/02/28 12:39:23;;;;;;;32.20;23.43;;;;;;;9.25;77.78;95753.59;4847615;29;20282;-86
2024/02/28 13:10:04;;;;;;;29.73;23.57;;;;;;;9.60;75.32;95679.63;4846719;29;20204;-87
2024/02/28 13:20:24;;;;;;;31.23;23.23;;;;;;;9.56;74.05;95643.16;4987469;28;20287;-86
2024/02/28 13:27:14;;;;;;;28.73;22.17;;;;;;;9.54;74.15;95654.59;4949876;28;23219;-87
2024/02/28 13:30:30;;;;;;;30.70;23.80;;;;;;;9.50;74.05;95630.97;4993734;28;20199;-87
2024/02/28 13:33:48;;;;;;;;;;;;;;;;;;;;;
2024/02/28 13:37:04;;;;;;;28.67;22.80;;;;;;;9.57;74.04;95647.34;4938682;28;20237;-86
2024/02/28 13:40:30;;;;;;;28.50;22.70;;;;;;;9.66;74.03;95655.78;4908244;29;20361;-86
2024/02/28 13:43:23;;;;;;;30.27;23.27;;;;;;;9.64;73.88;95642.31;4982698;28;20219;-87
2024/02/28 13:52:24;;;;;;;34.10;24.07;;;;;;;9.45;73.80;95655.56;4979973;28;20280;-86
2024/02/28 13:58:46;;;;;;;31.57;22.63;;;;;;;9.53;73.71;95645.28;4947724;28;20207;-86
2024/02/28 14:01:37;;;;;;;33.20;22.90;;;;;;;9.56;73.97;95648.31;5005272;28;20206;-86
2024/02/28 14:07:40;;;;;;;26.40;21.17;;;;;;;9.57;73.62;95633.69;4994300;28;20235;-86
2024/02/28 14:17:23;;;;;;;32.57;23.40;;;;;;;9.47;73.91;95659.59;4993091;28;20227;-86
2024/02/28 14:23:46;;;;;;;32.10;22.67;;;;;;;9.50;73.76;95651.53;4947261;29;20201;-85
2024/02/28 14:29:29;;;;;;;32.30;23.37;;;;;;;9.52;74.39;95667.59;4939252;28;20267;-87
2024/02/28 14:48:11;;;;;;;29.67;21.43;;;;;;;9.68;73.28;95656.44;4919347;28;20266;-86
2024/02/28 14:51:13;;;;;;;26.37;21.03;;;;;;;9.67;73.15;95658.19;4948734;29;20295;-86
2024/02/28 14:56:52;;;;;;;28.30;20.50;;;;;;;9.64;73.21;95657.72;5003415;28;20215;-86
2024/02/28 15:00:14;;;;;;;28.83;20.67;;;;;;;9.58;73.14;95655.84;5009139;28;20206;-86
2024/02/28 15:02:55;;;;;;;;;;;;;;;;;;;;;
2024/02/28 15:05:49;;;;;;;29.60;21.53;;;;;;;9.63;73.17;95662.06;5021127;28;20198;-85
2024/02/28 15:08:29;;;;;;;31.57;21.90;;;;;;;9.64;73.32;95660.31;4989186;28;20223;-86
2024/02/28 15:10:58;;;;;;;31.20;21.43;;;;;;;9.58;72.70;95640.44;4989884;28;20648;-85
2024/02/28 15:13:34;;;;;;;29.63;21.07;;;;;;;9.62;72.99;95645.03;5003960;28;20221;-86
2024/02/28 15:16:01;;;;;;;21.73;16.90;;;;;;;9.70;85.00;95970.72;5012692;28;20347;-83
2024/02/28 15:18:32;;;;;;;32.53;20.20;;;;;;;10.09;89.33;96031.78;5011180;28;20195;-86
2024/02/28 15:21:50;;;;;;;;;;;;;;;;;;;;;
2024/02/28 15:25:18;;;;;;;25.73;21.33;;;;;;;10.08;72.17;95552.50;5010808;28;20284;-86
2024/02/28 15:27:55;;;;;;;28.80;20.70;;;;;;;9.99;72.09;95545.81;4926199;29;20239;-87
2024/02/28 15:30:48;;;;;;;26.13;20.83;;;;;;;9.94;72.08;95554.06;5012583;28;20293;-86
2024/02/28 15:33:18;;;;;;;29.77;20.77;;;;;;;9.92;71.93;95550.06;5011348;28;20602;-86
2024/02/28 15:36:21;;;;;;;24.17;19.40;;;;;;;9.86;71.99;95546.41;5010238;28;20250;-85
2024/02/28 15:38:53;;;;;;;24.47;20.80;;;;;;;9.69;71.97;95544.91;5014319;28;20198;-85
2024/02/28 15:45:19;;;;;;;28.43;20.30;;;;;;;9.72;71.94;95559.22;5000298;28;20214;-86
2024/02/28 15:54:46;;;;;;;24.50;19.47;;;;;;;9.68;71.20;95540.75;4973175;28;20208;-87
2024/02/28 15:57:20;;;;;;;29.87;21.30;;;;;;;9.69;71.61;95550.84;4973979;28;20737;-87
2024/02/28 16:00:05;;;;;;;24.67;20.23;;;;;;;9.73;71.50;95556.47;4974427;28;20218;-86
2024/02/28 16:06:43;;;;;;;26.07;20.33;;;;;;;9.73;71.56;95561.59;4962311;28;20305;-86
2024/02/28 16:09:34;;;;;;;27.13;20.07;;;;;;;9.52;71.14;95536.53;5013268;28;20241;-86
2024/02/28 16:15:31;;;;;;;24.17;20.50;;;;;;;9.56;71.66;95566.06;5011973;28;20203;-86
2024/02/28 16:18:15;;;;;;;28.07;21.33;;;;;;;9.48;71.47;95537.03;5011826;28;20226;-86
2024/02/28 16:20:47;;;;;;;29.43;22.33;;;;;;;9.39;71.18;95531.16;5014325;28;20797;-85
2024/02/28 16:23:37;;;;;;;26.07;20.40;;;;;;;9.29;72.23;95571.66;5014911;28;20209;-86
2024/02/28 16:26:11;;;;;;;24.83;21.10;;;;;;;9.20;72.16;95568.34;5013784;28;20313;-85
2024/02/28 16:28:40;;;;;;;30.13;19.93;;;;;;;9.22;72.37;95586.16;5014337;28;20732;-86
2024/02/28 16:31:06;;;;;;;28.03;21.60;;;;;;;9.25;72.33;95584.03;5014960;28;20202;-85
2024/02/28 16:33:32;;;;;;;26.27;21.03;;;;;;;9.32;72.03;95571.34;5014370;28;20203;-86
2024/02/28 16:35:59;;;;;;;32.30;20.97;;;;;;;9.39;71.66;95563.75;5013609;28;20231;-86
2024/02/28 16:38:27;;;;;;;27.53;21.83;;;;;;;9.44;71.62;95562.25;5011977;28;20605;-86
2024/02/28 16:40:53;;;;;;;28.10;22.87;;;;;;;9.46;71.17;95556.94;5010446;28;20206;-86
2024/02/28 16:43:20;;;;;;;25.50;20.33;;;;;;;9.33;70.97;95537.75;5011342;28;20218;-86
2024/02/28 16:45:47;;;;;;;24.33;20.97;;;;;;;9.37;71.21;95543.38;5011048;28;20199;-87
2024/02/28 16:48:13;;;;;;;26.43;21.33;;;;;;;9.41;71.27;95554.91;5014900;28;20619;-86
2024/02/28 16:50:40;;;;;;;27.90;20.77;;;;;;;9.46;71.29;95556.94;5018092;28;20619;-86
2024/02/28 16:53:07;;;;;;;28.13;20.60;;;;;;;9.39;71.33;95559.41;5011014;28;20226;-86
2024/02/28 16:55:35;;;;;;;25.83;21.07;;;;;;;9.28;71.94;95572.63;5010655;28;20664;-86
2024/02/28 16:58:03;;;;;;;25.87;21.00;;;;;;;9.29;72.06;95580.19;5011378;28;20223;-87
2024/02/28 17:00:30;;;;;;;25.60;20.77;;;;;;;9.27;72.44;95601.84;5012493;28;20205;-86
2024/02/28 17:02:56;;;;;;;25.83;20.37;;;;;;;9.31;72.29;95609.06;5012380;28;20206;-85
2024/02/28 17:05:23;;;;;;;27.23;20.47;;;;;;;9.31;72.36;95603.13;5011549;28;20203;-86
2024/02/28 17:07:49;;;;;;;28.23;20.63;;;;;;;9.35;72.17;95607.78;5011505;28;20230;-86
2024/02/28 17:10:16;;;;;;;27.53;21.17;;;;;;;9.28;72.26;95618.88;5011316;28;20202;-86
2024/02/28 17:12:43;;;;;;;25.87;20.47;;;;;;;9.24;73.05;95636.38;5017078;28;20281;-86
2024/02/28 17:15:10;;;;;;;25.30;20.30;;;;;;;9.29;73.00;95646.16;5014066;28;20211;-85
2024/02/28 17:17:37;;;;;;;25.67;20.13;;;;;;;9.34;72.97;95657.56;5013867;28;20578;-85
2024/02/28 17:20:06;;;;;;;26.43;21.17;;;;;;;9.38;72.89;95649.53;5013640;28;20195;-86
2024/02/28 17:22:33;;;;;;;28.27;20.60;;;;;;;9.40;72.83;95650.16;5014488;28;20265;-86
2024/02/28 17:24:59;;;;;;;31.17;22.53;;;;;;;9.43;72.94;95657.53;5014437;28;20869;-86
2024/02/28 17:27:28;;;;;;;26.60;21.43;;;;;;;9.37;72.57;95642.78;5015034;28;20270;-86
2024/02/28 17:29:56;;;;;;;29.93;21.43;;;;;;;9.38;73.13;95654.66;5012472;28;20811;-86
2024/02/28 17:32:22;;;;;;;27.40;21.57;;;;;;;9.41;73.14;95664.59;5013708;28;20211;-87
2024/02/28 17:34:50;;;;;;;29.83;23.13;;;;;;;9.43;72.91;95663.44;5013405;28;20261;-85
2024/02/28 17:37:17;;;;;;;29.23;22.63;;;;;;;9.41;72.75;95644.84;5012228;28;20227;-86
2024/02/28 17:39:43;;;;;;;27.63;22.43;;;;;;;9.41;72.76;95639.72;5012120;28;20210;-85
2024/02/28 17:42:10;;;;;;;28.00;21.87;;;;;;;9.41;72.65;95647.44;5011640;28;20207;-85
2024/02/28 17:44:37;;;;;;;29.93;21.27;;;;;;;9.41;72.58;95655.13;5009475;28;20286;-85
2024/02/28 17:47:05;;;;;;;26.50;21.07;;;;;;;9.41;73.09;95667.19;5010650;28;20296;-86
2024/02/28 17:49:33;;;;;;;28.13;22.13;;;;;;;9.39;72.63;95656.25;5017926;28;20215;-86
2024/02/28 17:51:59;;;;;;;29.67;21.37;;;;;;;9.35;72.68;95645.50;5011427;28;20207;-86
2024/02/28 17:54:26;;;;;;;32.33;21.43;;;;;;;9.34;72.71;95656.75;5010511;28;20755;-86
2024/02/28 17:56:55;;;;;;;28.50;22.43;;;;;;;9.33;72.89;95668.81;5011914;28;20222;-86
2024/02/28 17:59:21;;;;;;;26.57;21.67;;;;;;;9.33;73.18;95673.13;5011506;28;20207;-86
2024/02/28 18:01:48;;;;;;;31.20;22.63;;;;;;;9.24;73.16;95677.50;5008529;28;20218;-85
2024/02/28 18:04:15;;;;;;;32.53;23.33;;;;;;;9.00;74.17;95704.06;5010248;28;20554;-86
2024/02/28 18:06:42;;;;;;;29.37;22.97;;;;;;;8.92;74.96;95728.94;5009395;28;20222;-86
2024/02/28 18:09:10;;;;;;;29.43;23.30;;;;;;;8.81;75.98;95754.97;5009154;28;20223;-86
2024/02/28 18:11:39;;;;;;;28.50;22.87;;;;;;;8.85;75.98;95753.69;5009735;28;20733;-86
2024/02/28 18:14:05;;;;;;;28.50;23.17;;;;;;;8.95;75.79;95754.31;5009549;28;20199;-85
2024/02/28 18:16:32;;;;;;;30.50;22.07;;;;;;;9.06;75.62;95748.00;5008761;28;20305;-85
2024/02/28 18:18:58;;;;;;;30.20;22.00;;;;;;;9.12;75.10;95731.97;5008608;28;20225;-85
2024/02/28 18:21:26;;;;;;;31.10;22.63;;;;;;;9.14;75.20;95725.69;5008802;28;20199;-87
2024/02/28 18:23:52;;;;;;;32.30;24.27;;;;;;;9.07;75.01;95718.81;5009473;28;20199;-86
2024/02/28 18:26:21;;;;;;;29.60;23.40;;;;;;;8.98;75.50;95728.31;5008991;28;20219;-85
2024/02/28 18:28:48;;;;;;;27.47;22.17;;;;;;;8.95;75.62;95726.84;5010564;28;20250;-87
2024/02/28 18:31:14;;;;;;;28.93;23.17;;;;;;;8.98;75.68;95741.13;5009578;28;20213;-85
2024/02/28 18:33:41;;;;;;;30.97;24.60;;;;;;;8.94;75.92;95745.78;5008322;28;20207;-86
2024/02/28 18:36:10;;;;;;;31.77;24.33;;;;;;;9.00;75.42;95739.22;5010174;28;20239;-86
2024/02/28 18:38:37;;;;;;;29.40;24.17;;;;;;;9.06;75.63;95748.00;5009683;28;20234;-86
2024/02/28 18:41:04;;;;;;;31.37;23.20;;;;;;;9.10;75.68;95751.88;5009340;28;20195;-87
2024/02/28 18:43:31;;;;;;;29.97;22.43;;;;;;;9.10;75.63;95754.44;5009423;28;20261;-87
2024/02/28 18:45:59;;;;;;;31.27;23.10;;;;;;;9.12;75.21;95747.38;5009137;28;20194;-87
2024/02/28 18:48:26;;;;;;;26.20;21.20;;;;;;;9.15;75.52;95741.91;5015154;28;20225;-87
2024/02/28 18:50:52;;;;;;;27.67;22.63;;;;;;;9.13;75.13;95742.06;5007221;28;20304;-85
2024/02/28 18:53:19;;;;;;;29.20;22.90;;;;;;;9.14;75.36;95735.97;5010372;28;20209;-86
2024/02/28 18:55:47;;;;;;;29.20;22.67;;;;;;;9.15;75.39;95740.16;5011578;28;20405;-87
2024/02/28 18:58:13;;;;;;;28.80;22.43;;;;;;;9.18;75.25;95737.25;5015852;28;20202;-86
2024/02/28 19:00:46;;;;;;;27.33;21.30;;;;;;;9.17;75.16;95737.41;5020313;28;20198;-87
2024/02/28 19:03:12;;;;;;;27.30;22.83;;;;;;;9.12;75.33;95739.66;5021891;28;20198;-86
2024/02/28 19:05:39;;;;;;;28.17;22.27;;;;;;;9.10;75.32;95739.81;5015352;28;20221;-85
2024/02/28 19:08:06;;;;;;;29.20;22.73;;;;;;;9.06;75.09;95735.97;5016636;28;20230;-86
2024/02/28 19:10:35;;;;;;;30.00;23.43;;;;;;;9.07;75.14;95739.34;5015018;28;20202;-86
2024/02/28 19:13:04;;;;;;;30.07;23.60;;;;;;;9.09;75.12;95735.66;5012192;28;20210;-87
2024/02/28 19:15:31;;;;;;;29.30;23.10;;;;;;;9.14;74.93;95740.31;4993274;28;20214;-86
2024/02/28 19:17:58;;;;;;;31.47;23.93;;;;;;;9.13;74.91;95724.09;5011739;28;20222;-86
2024/02/28 19:20:24;;;;;;;29.20;22.23;;;;;;;9.17;74.84;95732.28;5001880;28;20566;-86
2024/02/28 19:22:53;;;;;;;29.73;21.73;;;;;;;9.16;74.95;95722.97;5018606;28;20202;-86
2024/02/28 19:25:20;;;;;;;30.90;23.50;;;;;;;9.17;74.78;95727.94;5021944;28;20202;-86
2024/02/28 19:27:55;;;;;;;27.83;21.57;;;;;;;9.19;74.80;95730.34;5023821;28;20642;-86
2024/02/28 19:30:23;;;;;;;29.27;21.90;;;;;;;9.20;74.79;95724.25;5023846;28;20190;-85
2024/02/28 19:32:51;;;;;;;29.43;22.47;;;;;;;9.20;74.65;95722.47;5019806;28;20205;-86
2024/02/28 19:35:21;;;;;;;28.87;22.93;;;;;;;9.14;74.48;95715.41;5022052;28;20206;-86
2024/02/28 19:37:50;;;;;;;28.27;22.63;;;;;;;9.16;74.91;95720.41;5018748;28;20225;-87
2024/02/28 19:40:16;;;;;;;29.57;22.73;;;;;;;9.01;74.70;95710.00;5022779;28;20298;-86
2024/02/28 19:42:43;;;;;;;29.40;23.20;;;;;;;8.94;75.19;95727.00;5023268;28;20203;-86
2024/02/28 19:45:12;;;;;;;28.23;23.10;;;;;;;8.89;75.48;95749.81;5018315;28;20198;-86
2024/02/28 19:47:40;;;;;;;27.60;22.13;;;;;;;8.86;75.28;95748.34;5020936;28;20218;-86
2024/02/28 19:50:09;;;;;;;30.67;23.23;;;;;;;8.85;75.81;95751.88;5019944;28;20631;-86
2024/02/28 19:52:37;;;;;;;29.47;23.03;;;;;;;8.85;75.54;95751.88;5021688;28;20194;-86
2024/02/28 19:55:07;;;;;;;31.30;23.13;;;;;;;8.79;75.68;95755.13;5017683;28;20214;-87
2024/02/28 19:57:34;;;;;;;29.10;23.00;;;;;;;8.84;75.57;95747.75;5022838;28;20225;-87
2024/02/28 20:00:07;;;;;;;29.83;22.50;;;;;;;8.91;75.56;95737.59;5021143;28;20195;-86
2024/02/28 20:02:33;;;;;;;29.30;22.57;;;;;;;8.96;75.30;95743.88;5019030;28;20253;-87
2024/02/28 20:05:01;;;;;;;29.23;22.80;;;;;;;8.94;74.80;95738.09;5021038;28;20206;-86
2024/02/28 20:07:27;;;;;;;27.93;21.00;;;;;;;8.85;75.01;95738.28;5022847;28;20586;-86
2024/02/28 20:09:56;;;;;;;28.53;22.87;;;;;;;8.77;75.65;95746.78;5018854;28;20230;-86
2024/02/28 20:12:26;;;;;;;26.70;21.90;;;;;;;8.78;75.59;95745.81;5018558;28;20810;-86
2024/02/28 20:14:56;;;;;;;30.87;23.10;;;;;;;8.82;75.11;95744.53;5019826;28;20606;-86
2024/02/28 20:17:24;;;;;;;28.53;22.80;;;;;;;8.80;75.34;95740.50;5022423;28;20232;-86
2024/02/28 20:19:51;;;;;;;28.67;22.70;;;;;;;8.83;75.48;95745.34;5030679;28;20221;-86
2024/02/28 20:22:20;;;;;;;28.80;22.23;;;;;;;8.87;75.06;95739.69;5012384;28;20226;-86
2024/02/28 20:24:46;;;;;;;28.13;23.17;;;;;;;8.88;74.49;95725.09;5010802;28;20249;-86
2024/02/28 20:27:12;;;;;;;29.60;22.57;;;;;;;8.85;74.38;95720.31;5010037;28;20727;-86
2024/02/28 20:29:43;;;;;;;29.83;22.80;;;;;;;8.80;74.54;95713.09;5010790;28;20226;-86
2024/02/28 20:32:10;;;;;;;30.60;22.63;;;;;;;8.63;75.05;95724.31;5011031;28;20199;-86
2024/02/28 20:34:36;;;;;;;31.90;24.10;;;;;;;8.56;75.00;95725.91;5011682;28;20202;-86
2024/02/28 20:37:04;;;;;;;30.50;23.60;;;;;;;8.49;75.65;95741.13;5011137;28;20235;-87
2024/02/28 20:39:32;;;;;;;29.07;22.97;;;;;;;8.50;75.58;95741.94;5010858;28;20289;-86
2024/02/28 20:42:02;;;;;;;30.00;22.83;;;;;;;8.58;75.53;95744.53;5009518;28;20600;-86
2024/02/28 20:44:29;;;;;;;26.93;21.37;;;;;;;8.62;75.05;95740.69;5010776;28;20199;-87
2024/02/28 20:46:58;;;;;;;30.33;21.80;;;;;;;8.69;74.51;95720.28;5008735;28;20240;-87
2024/02/28 20:49:25;;;;;;;26.60;22.07;;;;;;;8.68;73.91;95698.94;5002781;28;20219;-85
2024/02/28 20:51:52;;;;;;;29.73;22.33;;;;;;;8.71;74.00;95697.84;5010559;28;20202;-86
2024/02/28 20:54:18;;;;;;;27.80;21.80;;;;;;;8.77;73.94;95692.88;5010195;28;20206;-86
2024/02/28 20:56:52;;;;;;;31.27;23.30;;;;;;;8.80;73.31;95666.88;5010318;28;20304;-86
2024/02/28 20:59:18;;;;;;;28.87;21.67;;;;;;;8.81;72.83;95657.41;5010451;28;20202;-86
2024/02/28 21:01:45;;;;;;;27.13;21.67;;;;;;;8.82;72.83;95651.31;5010853;28;20742;-85
2024/02/28 21:04:13;;;;;;;27.67;21.27;;;;;;;8.82;72.89;95641.03;5008663;28;20579;-86
2024/02/28 21:06:40;;;;;;;29.10;22.97;;;;;;;8.75;72.56;95634.94;5010477;28;20252;-86
2024/02/28 21:09:08;;;;;;;29.23;22.83;;;;;;;8.68;72.42;95632.22;5010573;28;20223;-86
2024/02/28 21:11:37;;;;;;;32.17;24.77;;;;;;;8.46;73.44;95643.19;5010850;28;20191;-86
2024/02/28 21:14:05;;;;;;;29.13;23.17;;;;;;;8.28;73.89;95668.94;5010467;28;20195;-86
2024/02/28 21:16:31;;;;;;;29.20;23.53;;;;;;;8.29;74.53;95699.56;5010551;28;20257;-86
2024/02/28 21:19:03;;;;;;;30.27;23.43;;;;;;;8.23;74.40;95689.16;5011008;28;20202;-86
2024/02/28 21:25:43;;;;;;;31.33;23.27;;;;;;;8.18;76.86;95776.81;4913805;29;20213;-86
2024/02/28 21:28:33;;;;;;;28.23;22.73;;;;;;;8.12;76.37;95753.56;4930900;29;20229;-87
2024/02/28 21:53:35;;;;;;;30.10;23.50;;;;;;;8.30;75.45;95713.19;4949511;28;20200;-86
2024/02/28 21:59:44;;;;;;;34.70;24.33;;;;;;;8.13;75.88;95726.97;4979848;28;20361;-87
2024/02/28 22:05:37;;;;;;;36.07;25.13;;;;;;;8.02;77.17;95750.34;5009831;28;20205;-85
2024/02/28 22:08:59;;;;;;;;;;;;;;;;;;;;;
2024/02/28 22:21:00;;;;;;;30.47;23.33;;;;;;;8.04;77.94;95769.75;4999417;28;20210;-84
2024/02/28 22:24:08;;;;;;;31.07;22.67;;;;;;;8.06;77.93;95764.47;5010271;28;20214;-84
2024/02/28 22:27:19;;;;;;;29.50;23.50;;;;;;;8.04;78.04;95779.19;5005855;28;20218;-85
2024/02/28 22:36:30;;;;;;;;;;;;;;;;;;;;;
2024/02/28 22:39:38;;;;;;;29.47;22.93;;;;;;;8.12;77.93;95763.81;5010647;28;20237;-85
2024/02/28 22:42:15;;;;;;;31.67;22.47;;;;;;;8.24;77.17;95740.31;4987722;28;20676;-85
2024/02/28 22:45:06;;;;;;;34.50;24.60;;;;;;;8.15;76.10;95692.50;5010668;28;20250;-85
2024/02/28 22:48:07;;;;;;;30.53;22.83;;;;;;;7.97;76.50;95715.72;5009549;28;20246;-85
2024/02/28 22:50:43;;;;;;;33.50;24.60;;;;;;;8.01;77.51;95738.47;4990682;28;20362;-85
2024/02/28 22:53:12;;;;;;;30.93;23.03;;;;;;;8.04;77.20;95727.91;4990801;28;20234;-85
2024/02/28 22:55:39;;;;;;;32.40;23.63;;;;;;;7.96;76.65;95711.53;5003189;28;20203;-85
2024/02/28 22:58:08;;;;;;;31.00;22.60;;;;;;;7.85;77.59;95732.34;5005828;28;20723;-86
2024/02/28 23:00:36;;;;;;;31.67;23.17;;;;;;;7.89;78.22;95753.34;5010847;28;20290;-85
2024/02/28 23:03:05;;;;;;;32.23;23.57;;;;;;;7.91;77.28;95712.97;5010319;28;20294;-85
2024/02/28 23:05:34;;;;;;;30.07;22.97;;;;;;;7.99;76.92;95697.63;5009851;28;20239;-85
2024/02/28 23:08:02;;;;;;;34.20;24.20;;;;;;;7.89;76.65;95696.94;5009362;28;20284;-85
2024/02/28 23:10:30;;;;;;;31.47;22.70;;;;;;;7.96;76.61;95692.78;5010267;28;20317;-85
2024/02/28 23:12:59;;;;;;;29.20;23.20;;;;;;;7.91;76.50;95685.56;5008330;28;20209;-85
2024/02/28 23:15:28;;;;;;;28.03;21.37;;;;;;;7.92;75.88;95661.53;5009888;28;20202;-85
2024/02/28 23:17:56;;;;;;;30.33;22.53;;;;;;;7.84;76.17;95666.66;5009856;28;20225;-84
2024/02/28 23:20:25;;;;;;;33.87;24.27;;;;;;;7.73;76.75;95678.97;5008888;28;20249;-85
2024/02/28 23:22:52;;;;;;;26.60;21.00;;;;;;;7.80;76.34;95677.38;5010023;28;20227;-85
2024/02/28 23:25:23;;;;;;;28.43;21.10;;;;;;;7.91;75.70;95657.38;5009148;28;20268;-86
2024/02/28 23:27:52;;;;;;;27.43;21.40;;;;;;;7.93;75.31;95646.97;5009978;28;20233;-85
2024/02/28 23:30:19;;;;;;;28.50;20.97;;;;;;;8.04;75.00;95631.28;5007981;28;20226;-85
2024/02/28 23:32:49;;;;;;;25.27;19.30;;;;;;;7.97;73.82;95602.09;5008919;28;20266;-85
2024/02/28 23:35:17;;;;;;;26.37;20.80;;;;;;;7.86;74.16;95595.56;5009685;28;20212;-86
2024/02/28 23:37:44;;;;;;;27.57;21.07;;;;;;;7.81;74.42;95615.72;5008716;28;20219;-85
2024/02/28 23:40:11;;;;;;;29.47;21.33;;;;;;;7.89;74.56;95618.28;5009127;28;20282;-85
2024/02/28 23:42:38;;;;;;;25.57;19.93;;;;;;;7.99;74.63;95618.13;5008909;28;20222;-85
2024/02/28 23:45:07;;;;;;;22.70;18.67;;;;;;;8.02;73.47;95573.44;5007054;28;20203;-85
2024/02/28 23:47:34;;;;;;;25.80;19.17;;;;;;;7.96;73.53;95562.84;4998840;28;20764;-85
2024/02/28 23:50:06;;;;;;;26.83;19.97;;;;;;;7.86;73.22;95546.84;5027449;28;20297;-85
2024/02/28 23:52:36;;;;;;;27.10;19.93;;;;;;;7.77;73.78;95573.41;5029378;28;20748;-84
2024/02/28 23:55:06;;;;;;;26.93;20.30;;;;;;;7.78;74.31;95594.72;5023627;28;20223;-85
2024/02/28 23:57:33;;;;;;;24.83;19.33;;;;;;;7.91;73.99;95597.59;5008877;28;20230;-85
